createdAt,value
2022-11-23T00:00:46.385Z,5.38
2022-11-23T00:03:15.802Z,5.48
2022-11-23T00:05:44.981Z,5.48
2022-11-23T00:08:12.623Z,5.50
2022-11-23T00:10:40.270Z,4.97
2022-11-23T00:13:07.893Z,5.14
2022-11-23T00:15:35.956Z,5.26
2022-11-23T00:18:03.594Z,4.96
2022-11-23T00:20:31.208Z,5.25
2022-11-23T00:23:00.214Z,5.34
2022-11-23T00:25:28.127Z,5.06
2022-11-23T00:27:56.244Z,5.07
2022-11-23T00:30:24.183Z,5.36
2022-11-23T00:32:51.877Z,5.50
2022-11-23T00:35:20.551Z,5.50
2022-11-23T00:37:49.281Z,5.61
2022-11-23T00:40:18.966Z,5.58
2022-11-23T00:42:46.589Z,5.50
2022-11-23T00:45:14.515Z,5.42
2022-11-23T00:47:42.296Z,5.16
2022-11-23T00:50:10.727Z,5.49
2022-11-23T00:52:38.328Z,5.15
2022-11-23T00:55:06.726Z,5.16
2022-11-23T00:57:35.889Z,4.94
2022-11-23T01:00:03.735Z,5.08
2022-11-23T01:02:31.367Z,5.13
2022-11-23T01:04:59.043Z,5.22
2022-11-23T01:07:26.685Z,4.88
2022-11-23T01:09:54.349Z,4.88
2022-11-23T01:12:21.954Z,4.97
2022-11-23T01:14:51.289Z,4.88
2022-11-23T01:17:19.100Z,4.77
2022-11-23T01:19:46.799Z,4.87
2022-11-23T01:22:14.645Z,5.16
2022-11-23T01:24:42.304Z,5.03
2022-11-23T01:27:10.025Z,4.64
2022-11-23T01:29:38.739Z,4.79
2022-11-23T01:32:07.988Z,4.93
2022-11-23T01:34:35.627Z,4.72
2022-11-23T01:37:04.325Z,5.09
2022-11-23T01:39:32.317Z,5.62
2022-11-23T01:42:00.081Z,5.49
2022-11-23T01:44:30.319Z,5.77
2022-11-23T01:46:59.720Z,5.20
2022-11-23T01:49:33.031Z,4.97
2022-11-23T01:52:05.063Z,5.14
2022-11-23T01:54:37.685Z,5.30
2022-11-23T01:57:10.052Z,5.38
2022-11-23T01:59:38.047Z,5.17
2022-11-23T02:02:06.484Z,5.04
2022-11-23T02:04:40.291Z,5.07
2022-11-23T02:07:08.626Z,5.25
2022-11-23T02:09:37.529Z,5.26
2022-11-23T02:12:12.671Z,5.38
2022-11-23T02:14:41.390Z,5.06
2022-11-23T02:17:10.063Z,5.38
2022-11-23T02:19:47.639Z,5.24
2022-11-23T02:22:23.694Z,5.18
2022-11-23T02:24:56.209Z,5.41
2022-11-23T02:27:26.745Z,5.20
2022-11-23T02:29:56.964Z,5.55
2022-11-23T02:32:25.871Z,5.48
2022-11-23T02:34:53.525Z,5.38
2022-11-23T02:37:21.358Z,5.57
2022-11-23T02:39:52.802Z,5.61
2022-11-23T02:42:20.640Z,5.83
2022-11-23T02:45:01.532Z,5.90
2022-11-23T02:47:29.190Z,5.91
2022-11-23T02:49:56.840Z,5.66
2022-11-23T02:52:24.580Z,5.57
2022-11-23T02:54:52.242Z,5.93
2022-11-23T02:57:19.933Z,5.65
2022-11-23T02:59:47.573Z,5.55
2022-11-23T03:02:16.704Z,5.34
2022-11-23T03:04:44.656Z,5.63
2022-11-23T03:07:12.751Z,5.83
2022-11-23T03:09:40.414Z,5.97
2022-11-23T03:12:08.406Z,5.86
2022-11-23T03:14:36.028Z,5.91
2022-11-23T03:17:03.943Z,5.96
2022-11-23T03:19:33.199Z,5.99
2022-11-23T03:22:00.973Z,5.71
2022-11-23T03:24:28.602Z,5.99
2022-11-23T03:26:56.727Z,6.03
2022-11-23T03:29:26.418Z,5.83
2022-11-23T03:31:54.360Z,5.78
2022-11-23T03:34:22.543Z,5.62
2022-11-23T03:36:51.536Z,5.67
2022-11-23T03:39:19.605Z,5.84
2022-11-23T03:41:47.503Z,5.65
2022-11-23T03:44:15.249Z,5.38
2022-11-23T03:46:42.852Z,5.72
2022-11-23T03:49:10.529Z,5.60
2022-11-23T03:51:38.185Z,5.53
2022-11-23T03:54:07.613Z,5.65
2022-11-23T03:56:35.481Z,5.48
2022-11-23T03:59:03.319Z,5.60
2022-11-23T04:01:31.424Z,5.64
2022-11-23T04:04:00.457Z,5.29
2022-11-23T04:06:28.132Z,5.62
2022-11-23T04:09:01.562Z,5.80
2022-11-23T04:11:31.147Z,6.00
2022-11-23T04:13:59.240Z,5.85
2022-11-23T04:16:26.873Z,5.98
2022-11-23T04:18:54.491Z,5.71
2022-11-23T04:21:22.174Z,5.92
2022-11-23T04:23:51.091Z,5.65
2022-11-23T04:26:18.768Z,5.82
2022-11-23T04:28:47.763Z,5.92
2022-11-23T04:31:15.664Z,5.93
2022-11-23T04:33:43.612Z,6.12
2022-11-23T04:36:11.349Z,5.86
2022-11-23T04:38:39.041Z,5.81
2022-11-23T04:41:06.790Z,5.47
2022-11-23T04:43:34.456Z,5.70
2022-11-23T04:46:03.629Z,5.83
2022-11-23T04:48:31.925Z,5.98
2022-11-23T04:51:00.179Z,5.93
2022-11-23T04:53:27.871Z,5.82
2022-11-23T04:55:55.514Z,5.57
2022-11-23T04:58:23.314Z,5.86
2022-11-23T05:00:50.983Z,5.87
2022-11-23T05:03:20.263Z,5.61
2022-11-23T05:05:47.923Z,5.81
2022-11-23T05:08:16.631Z,5.50
2022-11-23T05:10:44.830Z,6.01
2022-11-23T05:13:12.828Z,6.10
2022-11-23T05:15:40.511Z,6.14
2022-11-23T05:18:10.529Z,6.26
2022-11-23T05:20:40.169Z,6.19
2022-11-23T05:23:08.083Z,6.05
2022-11-23T05:25:36.829Z,5.97
2022-11-23T05:28:30.067Z,6.13
2022-11-23T05:30:52.464Z,6.31
2022-11-23T05:33:21.292Z,6.31
2022-11-23T05:35:50.252Z,6.00
2022-11-23T05:38:18.702Z,5.83
2022-11-23T05:40:46.782Z,6.00
2022-11-23T05:43:14.656Z,6.23
2022-11-23T05:45:42.401Z,6.46
2022-11-23T05:48:10.979Z,6.48
2022-11-23T05:50:38.736Z,6.23
2022-11-23T05:53:07.760Z,6.21
2022-11-23T05:55:36.472Z,6.21
2022-11-23T05:58:04.159Z,6.18
2022-11-23T06:00:32.823Z,6.09
2022-11-23T06:03:01.706Z,5.93
2022-11-23T06:05:30.049Z,6.16
2022-11-23T06:07:58.472Z,6.26
2022-11-23T06:10:27.694Z,6.24
2022-11-23T06:12:55.402Z,6.19
2022-11-23T06:15:23.129Z,6.32
2022-11-23T06:17:50.705Z,6.15
2022-11-23T06:20:18.458Z,6.17
2022-11-23T06:22:52.293Z,6.31
2022-11-23T06:25:20.040Z,6.38
2022-11-23T06:27:57.956Z,5.96
2022-11-23T06:30:26.691Z,6.22
2022-11-23T06:32:54.508Z,6.17
2022-11-23T06:35:22.143Z,6.09
2022-11-23T06:37:50.580Z,6.04
2022-11-23T06:40:18.640Z,5.98
2022-11-23T06:42:46.664Z,5.87
2022-11-23T06:45:16.260Z,5.78
2022-11-23T06:47:44.376Z,5.61
2022-11-23T06:50:14.337Z,5.57
2022-11-23T06:52:42.023Z,5.55
2022-11-23T06:55:09.944Z,5.49
2022-11-23T06:57:37.824Z,5.45
2022-11-23T07:00:06.836Z,5.34
2022-11-23T07:02:36.005Z,5.12
2022-11-23T07:05:03.714Z,4.97
2022-11-23T07:07:31.423Z,4.87
2022-11-23T07:10:01.636Z,4.80
2022-11-23T07:12:33.273Z,4.80
2022-11-23T07:15:00.962Z,4.82
2022-11-23T07:17:28.601Z,4.74
2022-11-23T07:19:57.783Z,4.64
2022-11-23T07:22:25.445Z,4.60
2022-11-23T07:24:53.036Z,4.51
2022-11-23T07:27:20.785Z,4.54
2022-11-23T07:29:48.463Z,4.65
2022-11-23T07:32:16.147Z,4.80
2022-11-23T07:34:43.939Z,4.93
2022-11-23T07:37:12.929Z,4.75
2022-11-23T07:39:56.849Z,5.01
2022-11-23T07:42:36.036Z,4.90
2022-11-23T07:45:10.383Z,4.93
2022-11-23T07:47:38.376Z,5.09
2022-11-23T07:50:07.798Z,4.97
2022-11-23T07:52:37.086Z,5.39
2022-11-23T07:55:05.544Z,5.27
2022-11-23T07:57:33.219Z,5.28
2022-11-23T08:00:00.837Z,5.70
2022-11-23T08:02:28.568Z,5.78
2022-11-23T08:04:56.547Z,5.83
2022-11-23T08:07:24.280Z,5.70
2022-11-23T08:09:53.289Z,5.90
2022-11-23T08:12:21.572Z,5.84
2022-11-23T08:14:49.199Z,5.90
2022-11-23T08:17:17.094Z,5.96
2022-11-23T08:19:44.937Z,5.83
2022-11-23T08:22:15.748Z,5.87
2022-11-23T08:24:43.797Z,5.95
2022-11-23T08:27:12.801Z,5.77
2022-11-23T08:29:40.534Z,5.89
2022-11-23T08:32:09.252Z,5.95
2022-11-23T08:34:37.035Z,6.07
2022-11-23T08:37:04.694Z,6.37
2022-11-23T08:39:32.462Z,6.60
2022-11-23T08:42:00.343Z,6.67
2022-11-23T08:44:30.102Z,6.86
2022-11-23T08:46:58.124Z,6.87
2022-11-23T08:49:26.107Z,6.95
2022-11-23T08:51:54.480Z,7.10
2022-11-23T08:54:24.261Z,7.08
2022-11-23T08:56:52.197Z,7.09
2022-11-23T08:59:22.698Z,7.26
2022-11-23T09:01:51.711Z,7.43
2022-11-23T09:04:20.942Z,7.52
2022-11-23T09:06:48.803Z,7.60
2022-11-23T09:09:16.411Z,7.62
2022-11-23T09:11:44.053Z,7.68
2022-11-23T09:14:11.767Z,7.50
2022-11-23T09:16:39.340Z,7.57
2022-11-23T09:19:08.356Z,7.51
2022-11-23T09:21:39.302Z,7.44
2022-11-23T09:24:07.777Z,7.48
2022-11-23T09:26:37.542Z,7.51
2022-11-23T09:29:05.606Z,7.61
2022-11-23T09:31:33.374Z,7.78
2022-11-23T09:34:01.201Z,7.88
2022-11-23T09:36:30.190Z,8.01
2022-11-23T09:38:58.290Z,8.15
2022-11-23T09:41:50.269Z,8.32
2022-11-23T09:44:22.698Z,8.45
2022-11-23T09:47:03.927Z,8.51
2022-11-23T09:49:41.143Z,8.50
2022-11-23T09:52:17.261Z,8.56
2022-11-23T09:54:47.384Z,8.60
2022-11-23T09:57:19.729Z,8.61
2022-11-23T09:59:54.002Z,8.65
2022-11-23T10:02:24.233Z,8.77
2022-11-23T10:04:53.530Z,8.97
2022-11-23T10:07:38.423Z,9.06
2022-11-23T10:10:14.523Z,8.99
2022-11-23T10:12:52.836Z,9.06
2022-11-23T10:15:25.611Z,8.77
2022-11-23T10:18:29.771Z,9.12
2022-11-23T10:21:04.991Z,9.36
2022-11-23T10:23:48.117Z,9.16
2022-11-23T10:26:19.634Z,9.53
2022-11-23T10:28:48.764Z,9.28
2022-11-23T10:31:18.790Z,9.55
2022-11-23T10:33:56.604Z,9.80
2022-11-23T10:36:24.378Z,9.67
2022-11-23T10:38:58.652Z,9.99
2022-11-23T10:41:26.689Z,10.03
2022-11-23T10:44:05.306Z,10.11
2022-11-23T10:46:40.032Z,10.64
2022-11-23T10:49:19.425Z,11.04
2022-11-23T10:51:51.974Z,11.55
2022-11-23T10:54:24.935Z,11.94
2022-11-23T10:56:54.627Z,12.21
2022-11-23T10:59:35.367Z,11.43
2022-11-23T11:02:15.936Z,11.68
2022-11-23T11:04:44.021Z,12.19
2022-11-23T11:07:20.538Z,12.54
2022-11-23T11:09:52.584Z,12.94
2022-11-23T11:12:20.288Z,12.46
2022-11-23T11:15:16.652Z,12.84
2022-11-23T11:17:44.371Z,12.94
2022-11-23T11:20:38.087Z,13.98
2022-11-23T11:23:18.640Z,13.29
2022-11-23T11:25:48.980Z,14.28
2022-11-23T11:28:25.907Z,14.28
2022-11-23T11:31:09.247Z,14.25
2022-11-23T11:33:44.168Z,14.53
2022-11-23T11:36:17.322Z,13.74
2022-11-23T11:39:15.111Z,13.99
2022-11-23T11:41:40.680Z,14.15
2022-11-23T11:44:14.876Z,13.94
2022-11-23T11:46:48.475Z,15.37
2022-11-23T11:49:20.467Z,14.98
2022-11-23T11:51:51.465Z,14.63
2022-11-23T11:54:25.908Z,14.53
2022-11-23T11:56:58.871Z,14.64
2022-11-23T11:59:30.319Z,15.14
2022-11-23T12:02:08.774Z,15.43
2022-11-23T12:04:41.285Z,14.36
2022-11-23T12:07:15.243Z,15.44
2022-11-23T12:09:48.105Z,13.57
2022-11-23T12:12:21.927Z,14.06
2022-11-23T12:14:53.012Z,15.17
2022-11-23T12:17:41.553Z,17.04
2022-11-23T12:20:18.245Z,14.54
2022-11-23T12:23:00.539Z,14.53
2022-11-23T12:25:36.605Z,14.66
2022-11-23T12:28:28.423Z,15.25
2022-11-23T12:31:09.170Z,15.21
2022-11-23T12:33:54.418Z,14.52
2022-11-23T12:36:45.644Z,14.42
2022-11-23T12:39:33.457Z,13.36
2022-11-23T12:42:09.595Z,13.36
2022-11-23T12:44:55.593Z,12.71
2022-11-23T12:47:36.104Z,12.29
2022-11-23T12:50:20.720Z,12.22
2022-11-23T12:53:00.772Z,11.80
2022-11-23T12:55:38.993Z,13.38
2022-11-23T12:58:14.000Z,13.44
2022-11-23T13:00:48.743Z,13.87
2022-11-23T13:03:55.372Z,12.45
2022-11-23T13:07:12.698Z,13.49
2022-11-23T13:09:56.390Z,13.72
2022-11-23T13:12:40.474Z,12.23
2022-11-23T13:15:27.197Z,13.28
2022-11-23T13:18:03.226Z,14.50
2022-11-23T13:20:51.313Z,12.41
2022-11-23T13:23:21.596Z,13.59
2022-11-23T13:26:21.724Z,13.61
2022-11-23T13:28:51.270Z,14.49
2022-11-23T13:31:25.304Z,13.76
2022-11-23T13:33:56.428Z,13.75
2022-11-23T13:37:16.589Z,14.98
2022-11-23T13:40:04.073Z,14.64
2022-11-23T13:42:34.774Z,16.04
2022-11-23T13:45:24.417Z,15.00
2022-11-23T13:51:07.774Z,15.17
2022-11-23T13:53:38.207Z,15.58
2022-11-23T13:56:32.106Z,15.41
2022-11-23T13:59:20.766Z,14.03
2022-11-23T14:02:26.546Z,13.83
2022-11-23T14:05:10.459Z,13.22
2022-11-23T14:07:46.343Z,12.80
2022-11-23T14:10:21.999Z,12.35
2022-11-23T14:12:55.308Z,12.01
2022-11-23T14:15:25.897Z,11.08
2022-11-23T14:18:14.147Z,10.81
2022-11-23T14:20:53.481Z,10.42
2022-11-23T14:23:59.135Z,10.18
2022-11-23T14:26:35.584Z,10.29
2022-11-23T14:29:22.456Z,10.32
2022-11-23T14:32:09.853Z,10.14
2022-11-23T14:34:45.368Z,10.08
2022-11-23T14:37:25.088Z,9.95
2022-11-23T14:40:07.703Z,9.90
2022-11-23T14:42:42.683Z,10.00
2022-11-23T14:45:15.564Z,9.94
2022-11-23T14:47:43.667Z,9.86
2022-11-23T14:50:26.420Z,9.81
2022-11-23T14:52:56.853Z,9.80
2022-11-23T14:55:28.690Z,9.72
2022-11-23T14:58:01.086Z,9.76
2022-11-23T15:00:32.611Z,9.80
2022-11-23T15:03:26.990Z,9.71
2022-11-23T15:05:58.052Z,9.70
2022-11-23T15:08:31.877Z,9.78
2022-11-23T15:11:06.626Z,9.82
2022-11-23T15:13:44.211Z,9.89
2022-11-23T15:16:14.673Z,9.83
2022-11-23T15:18:43.146Z,9.89
2022-11-23T15:21:25.337Z,9.85
2022-11-23T15:23:57.014Z,9.79
2022-11-23T15:26:47.529Z,9.82
2022-11-23T15:29:37.650Z,9.68
2022-11-23T15:32:32.488Z,9.56
2022-11-23T15:35:04.881Z,9.52
2022-11-23T15:37:34.427Z,9.61
2022-11-23T15:40:02.289Z,9.59
2022-11-23T15:42:31.652Z,9.66
2022-11-23T15:45:00.479Z,9.67
2022-11-23T15:47:31.160Z,9.59
2022-11-23T15:50:02.361Z,9.58
2022-11-23T15:52:36.156Z,9.43
2022-11-23T15:55:09.818Z,9.43
2022-11-23T15:57:40.404Z,9.36
2022-11-23T16:00:10.747Z,9.37
2022-11-23T16:02:38.756Z,9.32
2022-11-23T16:05:15.737Z,9.40
2022-11-23T16:07:54.817Z,9.43
2022-11-23T16:10:25.899Z,9.47
2022-11-23T16:12:56.975Z,9.46
2022-11-23T16:15:41.406Z,9.44
2022-11-23T16:18:21.711Z,9.27
2022-11-23T16:20:52.161Z,9.38
2022-11-23T16:23:24.611Z,9.08
2022-11-23T16:25:58.528Z,9.00
2022-11-23T16:28:31.787Z,8.94
2022-11-23T16:31:00.436Z,8.86
2022-11-23T16:33:30.226Z,8.84
2022-11-23T16:35:57.985Z,8.68
2022-11-23T16:38:27.706Z,8.58
2022-11-23T16:40:56.273Z,8.47
2022-11-23T16:43:24.551Z,8.59
2022-11-23T16:45:55.469Z,8.52
2022-11-23T16:48:42.902Z,8.38
2022-11-23T16:51:14.251Z,8.43
2022-11-23T16:56:34.185Z,8.20
2022-11-23T16:59:01.982Z,8.22
2022-11-23T17:01:32.566Z,8.27
2022-11-23T17:04:01.001Z,7.99
2022-11-23T17:06:28.907Z,8.07
2022-11-23T17:09:06.249Z,8.15
2022-11-23T17:11:38.362Z,8.07
2022-11-23T17:14:07.106Z,8.06
2022-11-23T17:16:36.342Z,8.06
2022-11-23T17:19:04.064Z,8.09
2022-11-23T17:21:31.688Z,8.06
2022-11-23T17:23:59.468Z,8.18
2022-11-23T17:26:33.922Z,8.14
2022-11-23T17:29:03.433Z,8.25
2022-11-23T17:31:31.710Z,8.29
2022-11-23T17:34:00.673Z,8.39
2022-11-23T17:36:30.028Z,8.43
2022-11-23T17:38:57.842Z,8.48
2022-11-23T17:41:25.478Z,8.49
2022-11-23T17:43:54.355Z,8.43
2022-11-23T17:46:23.680Z,8.60
2022-11-23T17:48:54.827Z,8.45
2022-11-23T17:51:24.207Z,8.47
2022-11-23T17:53:52.146Z,8.54
2022-11-23T17:56:22.210Z,8.31
2022-11-23T17:58:52.225Z,8.33
2022-11-23T18:01:21.904Z,8.25
2022-11-23T18:03:49.714Z,7.99
2022-11-23T18:06:19.543Z,8.16
2022-11-23T18:08:49.530Z,7.99
2022-11-23T18:11:17.926Z,7.85
2022-11-23T18:13:47.059Z,8.08
2022-11-23T18:16:15.797Z,8.02
2022-11-23T18:18:43.555Z,7.80
2022-11-23T18:21:14.339Z,7.81
2022-11-23T18:23:42.359Z,7.98
2022-11-23T18:26:20.714Z,8.02
2022-11-23T18:28:49.064Z,8.25
2022-11-23T18:31:17.258Z,8.07
2022-11-23T18:33:45.766Z,7.98
2022-11-23T18:36:13.821Z,7.93
2022-11-23T18:38:42.231Z,8.10
2022-11-23T18:41:10.018Z,8.17
2022-11-23T18:43:39.340Z,8.13
2022-11-23T18:46:10.050Z,8.03
2022-11-23T18:48:38.471Z,8.04
2022-11-23T18:51:11.601Z,8.29
2022-11-23T18:53:39.304Z,8.19
2022-11-23T18:56:08.134Z,8.04
2022-11-23T18:58:36.136Z,7.99
2022-11-23T19:01:12.246Z,7.86
2022-11-23T19:03:41.745Z,7.92
2022-11-23T19:06:11.945Z,7.93
2022-11-23T19:08:40.314Z,8.19
2022-11-23T19:11:08.772Z,7.91
2022-11-23T19:13:37.910Z,8.05
2022-11-23T19:16:12.667Z,8.19
2022-11-23T19:18:40.581Z,7.81
2022-11-23T19:21:16.330Z,8.17
2022-11-23T19:23:44.963Z,8.13
2022-11-23T19:26:12.909Z,8.05
2022-11-23T19:28:44.614Z,7.86
2022-11-23T19:31:16.169Z,7.91
2022-11-23T19:33:44.460Z,7.83
2022-11-23T19:36:15.090Z,7.91
2022-11-23T19:38:44.997Z,7.75
2022-11-23T19:41:13.293Z,7.68
2022-11-23T19:43:41.172Z,7.70
2022-11-23T19:46:12.126Z,7.75
2022-11-23T19:48:42.226Z,7.66
2022-11-23T19:51:13.092Z,7.61
2022-11-23T19:53:42.758Z,7.58
2022-11-23T19:56:14.098Z,7.65
2022-11-23T19:58:42.703Z,7.69
2022-11-23T20:01:13.020Z,7.65
2022-11-23T20:03:43.788Z,7.73
2022-11-23T20:06:15.521Z,7.76
2022-11-23T20:08:44.164Z,7.66
2022-11-23T20:11:14.228Z,7.66
2022-11-23T20:13:42.630Z,7.75
2022-11-23T20:16:13.486Z,7.75
2022-11-23T20:18:43.496Z,7.69
2022-11-23T20:21:12.940Z,7.75
2022-11-23T20:23:41.257Z,7.78
2022-11-23T20:26:11.092Z,7.78
2022-11-23T20:28:39.168Z,7.81
2022-11-23T20:31:08.131Z,7.80
2022-11-23T20:33:36.081Z,7.82
2022-11-23T20:36:15.241Z,7.81
2022-11-23T20:38:43.934Z,7.73
2022-11-23T20:41:13.792Z,7.73
2022-11-23T20:43:42.005Z,7.69
2022-11-23T20:46:09.997Z,7.71
2022-11-23T20:48:39.436Z,7.72
2022-11-23T20:51:10.675Z,7.68
2022-11-23T20:53:40.498Z,7.74
2022-11-23T20:56:10.757Z,7.67
2022-11-23T20:58:39.141Z,7.62
2022-11-23T21:01:08.421Z,7.61
2022-11-23T21:03:37.069Z,7.69
2022-11-23T21:06:06.146Z,7.80
2022-11-23T21:08:35.139Z,7.78
2022-11-23T21:11:41.188Z,7.81
2022-11-23T21:14:17.605Z,7.81
2022-11-23T21:16:52.654Z,7.68
2022-11-23T21:19:22.137Z,7.76
2022-11-23T21:21:51.447Z,7.68
2022-11-23T21:24:19.560Z,7.74
2022-11-23T21:26:48.956Z,7.72
2022-11-23T21:29:16.928Z,7.79
2022-11-23T21:31:46.743Z,7.91
2022-11-23T21:34:19.210Z,7.94
2022-11-23T21:36:47.430Z,8.00
2022-11-23T21:39:15.867Z,8.10
2022-11-23T21:41:44.331Z,8.07
2022-11-23T21:44:13.527Z,8.07
2022-11-23T21:46:42.144Z,8.09
2022-11-23T21:49:10.516Z,8.15
2022-11-23T21:51:39.312Z,8.18
2022-11-23T21:54:09.898Z,8.23
2022-11-23T21:56:37.571Z,8.24
2022-11-23T21:59:05.266Z,8.26
2022-11-23T22:01:36.162Z,8.22
2022-11-23T22:04:05.825Z,8.17
2022-11-23T22:06:33.616Z,8.13
2022-11-23T22:09:01.665Z,8.19
2022-11-23T22:11:31.387Z,8.05
2022-11-23T22:14:00.962Z,8.14
2022-11-23T22:16:30.126Z,8.28
2022-11-23T22:19:00.621Z,8.25
2022-11-23T22:21:30.577Z,8.19
2022-11-23T22:23:59.995Z,8.30
2022-11-23T22:26:28.845Z,8.24
2022-11-23T22:28:57.293Z,8.43
2022-11-23T22:31:27.651Z,8.44
2022-11-23T22:33:55.423Z,8.49
2022-11-23T22:36:25.660Z,8.45
2022-11-23T22:39:01.338Z,8.55
2022-11-23T22:41:30.641Z,8.51
2022-11-23T22:43:59.775Z,8.60
2022-11-23T22:46:28.197Z,8.56
2022-11-23T22:48:59.121Z,8.52
2022-11-23T22:51:29.701Z,8.59
2022-11-23T22:53:58.714Z,8.68
2022-11-23T22:56:27.664Z,8.65
2022-11-23T22:58:55.541Z,8.61
2022-11-23T23:01:26.340Z,8.67
2022-11-23T23:03:55.401Z,8.76
2022-11-23T23:06:24.846Z,8.80
2022-11-23T23:08:56.758Z,8.79
2022-11-23T23:11:25.203Z,8.78
2022-11-23T23:13:53.564Z,8.79
2022-11-23T23:16:21.659Z,8.85
2022-11-23T23:18:50.171Z,8.83
2022-11-23T23:21:19.908Z,8.85
2022-11-23T23:23:49.297Z,8.88
2022-11-23T23:26:20.488Z,8.86
2022-11-23T23:28:48.808Z,8.86
2022-11-23T23:31:18.072Z,8.89
2022-11-23T23:33:46.555Z,8.92
2022-11-23T23:36:16.229Z,8.87
2022-11-23T23:38:44.598Z,8.84
2022-11-23T23:41:13.417Z,8.90
2022-11-23T23:43:43.441Z,8.97
2022-11-23T23:46:13.699Z,8.90
2022-11-23T23:48:42.241Z,8.81
2022-11-23T23:51:11.566Z,8.85
2022-11-23T23:53:40.108Z,8.90
2022-11-23T23:56:12.647Z,8.91
2022-11-23T23:58:42.436Z,8.95
